sensor_id;sensor_type;location;lat;lon;timestamp;pressure;altitude;pressure_sealevel;temperature;humidity
75585;BME280;64162;53.508;10.476;2024-02-14T00:01:06;101194.38;;;10.49;55.67
75585;BME280;64162;53.508;10.476;2024-02-14T00:03:39;101193.03;;;10.18;56.49
75585;BME280;64162;53.508;10.476;2024-02-14T00:06:06;101189.53;;;11.17;54.74
75585;BME280;64162;53.508;10.476;2024-02-14T00:08:33;101197.66;;;10.96;55.22
75585;BME280;64162;53.508;10.476;2024-02-14T00:10:59;101188.22;;;11.13;55.64
75585;BME280;64162;53.508;10.476;2024-02-14T00:13:26;101182.09;;;10.96;54.93
75585;BME280;64162;53.508;10.476;2024-02-14T00:15:53;101189.78;;;11.24;55.64
75585;BME280;64162;53.508;10.476;2024-02-14T00:18:20;101176.91;;;10.96;55.62
75585;BME280;64162;53.508;10.476;2024-02-14T00:20:50;101186.94;;;11.17;55.59
75585;BME280;64162;53.508;10.476;2024-02-14T00:23:16;101189.34;;;11.10;54.95
75585;BME280;64162;53.508;10.476;2024-02-14T00:25:49;101184.06;;;11.02;54.74
75585;BME280;64162;53.508;10.476;2024-02-14T00:28:15;101183.03;;;10.77;55.75
75585;BME280;64162;53.508;10.476;2024-02-14T00:30:48;101175.75;;;11.34;53.95
75585;BME280;64162;53.508;10.476;2024-02-14T00:33:14;101185.44;;;11.50;54.30
75585;BME280;64162;53.508;10.476;2024-02-14T00:35:45;101177.31;;;11.27;54.65
75585;BME280;64162;53.508;10.476;2024-02-14T00:38:12;101187.88;;;10.90;55.14
75585;BME280;64162;53.508;10.476;2024-02-14T00:40:38;101167.34;;;11.14;54.79
75585;BME280;64162;53.508;10.476;2024-02-14T00:43:07;101180.75;;;10.74;55.55
75585;BME280;64162;53.508;10.476;2024-02-14T00:45:33;101177.47;;;11.26;54.12
75585;BME280;64162;53.508;10.476;2024-02-14T00:48:01;101175.44;;;11.37;54.44
75585;BME280;64162;53.508;10.476;2024-02-14T00:50:36;101156.09;;;11.06;54.44
75585;BME280;64162;53.508;10.476;2024-02-14T00:53:04;101167.72;;;10.84;54.84
75585;BME280;64162;53.508;10.476;2024-02-14T00:55:33;101178.41;;;10.54;56.13
75585;BME280;64162;53.508;10.476;2024-02-14T00:58:00;101158.09;;;10.94;54.82
75585;BME280;64162;53.508;10.476;2024-02-14T01:00:26;101160.63;;;11.04;54.46
75585;BME280;64162;53.508;10.476;2024-02-14T01:02:53;101147.72;;;10.76;55.61
75585;BME280;64162;53.508;10.476;2024-02-14T01:05:20;101165.22;;;11.10;53.92
75585;BME280;64162;53.508;10.476;2024-02-14T01:07:46;101148.97;;;11.08;53.61
75585;BME280;64162;53.508;10.476;2024-02-14T01:10:13;101167.66;;;10.94;55.23
75585;BME280;64162;53.508;10.476;2024-02-14T01:12:41;101166.84;;;10.93;56.03
75585;BME280;64162;53.508;10.476;2024-02-14T01:15:10;101155.44;;;10.86;55.31
75585;BME280;64162;53.508;10.476;2024-02-14T01:17:37;101155.38;;;10.96;54.44
75585;BME280;64162;53.508;10.476;2024-02-14T01:20:07;101160.75;;;10.67;54.13
75585;BME280;64162;53.508;10.476;2024-02-14T01:22:44;101154.34;;;10.44;55.82
75585;BME280;64162;53.508;10.476;2024-02-14T01:25:15;101150.69;;;10.82;54.77
75585;BME280;64162;53.508;10.476;2024-02-14T01:27:42;101141.16;;;10.64;55.24
75585;BME280;64162;53.508;10.476;2024-02-14T01:30:11;101146.09;;;10.58;55.27
75585;BME280;64162;53.508;10.476;2024-02-14T01:32:37;101150.13;;;10.25;55.74
75585;BME280;64162;53.508;10.476;2024-02-14T01:35:05;101141.38;;;10.71;55.86
75585;BME280;64162;53.508;10.476;2024-02-14T01:37:32;101137.72;;;10.82;55.62
75585;BME280;64162;53.508;10.476;2024-02-14T01:39:59;101139.25;;;10.39;56.93
75585;BME280;64162;53.508;10.476;2024-02-14T01:42:28;101140.03;;;10.67;56.12
75585;BME280;64162;53.508;10.476;2024-02-14T01:44:55;101140.75;;;10.77;56.05
75585;BME280;64162;53.508;10.476;2024-02-14T01:47:22;101136.31;;;10.52;56.59
75585;BME280;64162;53.508;10.476;2024-02-14T01:49:48;101133.16;;;10.93;56.54
75585;BME280;64162;53.508;10.476;2024-02-14T01:52:15;101129.22;;;10.54;57.12
75585;BME280;64162;53.508;10.476;2024-02-14T01:54:42;101124.41;;;10.76;56.60
75585;BME280;64162;53.508;10.476;2024-02-14T01:57:09;101127.25;;;11.01;56.67
75585;BME280;64162;53.508;10.476;2024-02-14T01:59:40;101118.78;;;10.63;59.15
75585;BME280;64162;53.508;10.476;2024-02-14T02:02:06;101119.44;;;10.48;58.80
75585;BME280;64162;53.508;10.476;2024-02-14T02:04:36;101102.13;;;10.84;58.18
75585;BME280;64162;53.508;10.476;2024-02-14T02:07:04;101111.78;;;10.73;58.77
75585;BME280;64162;53.508;10.476;2024-02-14T02:09:31;101106.81;;;10.62;59.49
75585;BME280;64162;53.508;10.476;2024-02-14T02:12:01;101101.53;;;10.37;60.60
75585;BME280;64162;53.508;10.476;2024-02-14T02:14:33;101106.16;;;10.60;59.01
75585;BME280;64162;53.508;10.476;2024-02-14T02:17:15;101112.28;;;10.59;59.49
75585;BME280;64162;53.508;10.476;2024-02-14T02:19:46;101113.56;;;10.01;61.31
75585;BME280;64162;53.508;10.476;2024-02-14T02:22:13;101108.41;;;10.28;61.80
75585;BME280;64162;53.508;10.476;2024-02-14T02:24:42;101093.63;;;10.38;61.15
75585;BME280;64162;53.508;10.476;2024-02-14T02:27:09;101091.84;;;10.56;60.47
75585;BME280;64162;53.508;10.476;2024-02-14T02:29:36;101085.94;;;10.46;61.17
75585;BME280;64162;53.508;10.476;2024-02-14T02:32:04;101085.03;;;10.20;60.89
75585;BME280;64162;53.508;10.476;2024-02-14T02:34:35;101084.91;;;10.12;62.07
75585;BME280;64162;53.508;10.476;2024-02-14T02:37:08;101081.75;;;10.18;62.05
75585;BME280;64162;53.508;10.476;2024-02-14T02:39:35;101078.16;;;10.46;61.09
75585;BME280;64162;53.508;10.476;2024-02-14T02:42:03;101071.69;;;9.87;62.49
75585;BME280;64162;53.508;10.476;2024-02-14T02:44:31;101065.31;;;9.82;63.26
75585;BME280;64162;53.508;10.476;2024-02-14T02:46:58;101074.47;;;10.04;62.81
75585;BME280;64162;53.508;10.476;2024-02-14T02:49:27;101065.44;;;10.53;61.66
75585;BME280;64162;53.508;10.476;2024-02-14T02:51:55;101056.38;;;10.31;62.44
75585;BME280;64162;53.508;10.476;2024-02-14T02:54:22;101076.03;;;9.87;63.59
75585;BME280;64162;53.508;10.476;2024-02-14T02:56:49;101060.84;;;10.02;63.55
75585;BME280;64162;53.508;10.476;2024-02-14T02:59:18;101052.94;;;10.48;62.46
75585;BME280;64162;53.508;10.476;2024-02-14T03:01:48;101056.88;;;10.52;62.51
75585;BME280;64162;53.508;10.476;2024-02-14T03:04:16;101040.44;;;9.99;63.51
75585;BME280;64162;53.508;10.476;2024-02-14T03:06:42;101051.53;;;10.18;63.22
75585;BME280;64162;53.508;10.476;2024-02-14T03:09:10;101050.91;;;9.79;64.29
75585;BME280;64162;53.508;10.476;2024-02-14T03:11:38;101043.72;;;10.01;64.08
75585;BME280;64162;53.508;10.476;2024-02-14T03:14:05;101049.81;;;10.27;63.52
75585;BME280;64162;53.508;10.476;2024-02-14T03:16:32;101045.06;;;10.05;63.35
75585;BME280;64162;53.508;10.476;2024-02-14T03:18:58;101043.84;;;10.26;63.71
75585;BME280;64162;53.508;10.476;2024-02-14T03:21:25;101037.78;;;9.90;64.06
75585;BME280;64162;53.508;10.476;2024-02-14T03:23:52;101025.44;;;10.47;62.76
75585;BME280;64162;53.508;10.476;2024-02-14T03:26:20;101023.88;;;10.54;62.02
75585;BME280;64162;53.508;10.476;2024-02-14T03:28:47;101023.16;;;10.44;62.79
75585;BME280;64162;53.508;10.476;2024-02-14T03:31:23;101025.13;;;10.32;63.13
75585;BME280;64162;53.508;10.476;2024-02-14T03:33:52;101018.13;;;10.25;63.86
75585;BME280;64162;53.508;10.476;2024-02-14T03:36:20;101028.66;;;10.14;63.89
75585;BME280;64162;53.508;10.476;2024-02-14T03:38:47;101011.13;;;10.08;64.96
75585;BME280;64162;53.508;10.476;2024-02-14T03:41:13;101017.47;;;10.13;63.41
75585;BME280;64162;53.508;10.476;2024-02-14T03:43:42;101013.13;;;10.14;64.55
75585;BME280;64162;53.508;10.476;2024-02-14T03:46:21;101017.06;;;10.18;64.45
75585;BME280;64162;53.508;10.476;2024-02-14T03:48:50;101019.94;;;10.15;64.04
75585;BME280;64162;53.508;10.476;2024-02-14T03:51:18;101006.72;;;10.36;63.48
75585;BME280;64162;53.508;10.476;2024-02-14T03:53:46;101015.66;;;10.41;63.11
75585;BME280;64162;53.508;10.476;2024-02-14T03:56:12;101011.69;;;10.29;64.33
75585;BME280;64162;53.508;10.476;2024-02-14T03:58:41;101007.50;;;10.01;64.49
75585;BME280;64162;53.508;10.476;2024-02-14T04:01:08;101003.59;;;10.14;64.47
75585;BME280;64162;53.508;10.476;2024-02-14T04:03:36;100998.44;;;10.32;63.84
75585;BME280;64162;53.508;10.476;2024-02-14T04:06:05;101004.16;;;10.36;64.32
75585;BME280;64162;53.508;10.476;2024-02-14T04:08:34;100993.50;;;10.21;64.10
75585;BME280;64162;53.508;10.476;2024-02-14T04:11:01;101009.47;;;10.07;64.81
75585;BME280;64162;53.508;10.476;2024-02-14T04:13:28;101006.59;;;9.92;65.71
75585;BME280;64162;53.508;10.476;2024-02-14T04:15:55;100991.72;;;10.39;63.91
75585;BME280;64162;53.508;10.476;2024-02-14T04:18:21;100994.31;;;10.12;64.64
75585;BME280;64162;53.508;10.476;2024-02-14T04:20:48;100986.09;;;10.26;63.77
75585;BME280;64162;53.508;10.476;2024-02-14T04:23:15;100989.31;;;10.10;64.31
75585;BME280;64162;53.508;10.476;2024-02-14T04:25:41;100985.50;;;9.69;66.18
75585;BME280;64162;53.508;10.476;2024-02-14T04:28:08;100975.03;;;9.61;66.39
75585;BME280;64162;53.508;10.476;2024-02-14T04:30:36;100982.13;;;10.04;65.09
75585;BME280;64162;53.508;10.476;2024-02-14T04:33:04;100971.81;;;9.59;66.53
75585;BME280;64162;53.508;10.476;2024-02-14T04:35:33;100973.44;;;10.05;65.42
75585;BME280;64162;53.508;10.476;2024-02-14T04:38:00;100967.69;;;10.29;64.43
75585;BME280;64162;53.508;10.476;2024-02-14T04:40:27;100966.28;;;9.72;65.92
75585;BME280;64162;53.508;10.476;2024-02-14T04:42:54;100971.16;;;10.20;64.86
75585;BME280;64162;53.508;10.476;2024-02-14T04:45:24;100967.72;;;10.02;66.04
75585;BME280;64162;53.508;10.476;2024-02-14T04:47:50;100974.72;;;9.91;65.82
75585;BME280;64162;53.508;10.476;2024-02-14T04:50:18;100968.91;;;9.89;65.92
75585;BME280;64162;53.508;10.476;2024-02-14T04:52:45;100965.88;;;10.12;65.28
75585;BME280;64162;53.508;10.476;2024-02-14T04:55:12;100973.03;;;9.82;66.35
75585;BME280;64162;53.508;10.476;2024-02-14T04:57:40;100973.34;;;10.15;65.50
75585;BME280;64162;53.508;10.476;2024-02-14T05:00:07;100959.69;;;10.22;65.00
75585;BME280;64162;53.508;10.476;2024-02-14T05:02:35;100969.28;;;9.95;66.52
75585;BME280;64162;53.508;10.476;2024-02-14T05:05:03;100968.03;;;9.71;66.60
75585;BME280;64162;53.508;10.476;2024-02-14T05:07:31;100963.44;;;9.93;66.28
75585;BME280;64162;53.508;10.476;2024-02-14T05:09:58;100950.16;;;10.23;65.55
75585;BME280;64162;53.508;10.476;2024-02-14T05:12:24;100949.03;;;10.08;65.94
75585;BME280;64162;53.508;10.476;2024-02-14T05:14:56;100940.53;;;9.80;66.89
75585;BME280;64162;53.508;10.476;2024-02-14T05:17:25;100960.22;;;10.26;65.74
75585;BME280;64162;53.508;10.476;2024-02-14T05:19:51;100960.50;;;10.23;65.75
75585;BME280;64162;53.508;10.476;2024-02-14T05:22:22;100946.13;;;9.93;66.73
75585;BME280;64162;53.508;10.476;2024-02-14T05:24:49;100955.84;;;10.26;65.83
75585;BME280;64162;53.508;10.476;2024-02-14T05:27:15;100953.41;;;9.62;67.46
75585;BME280;64162;53.508;10.476;2024-02-14T05:29:42;100950.66;;;10.09;66.68
75585;BME280;64162;53.508;10.476;2024-02-14T05:32:08;100932.78;;;10.33;65.30
75585;BME280;64162;53.508;10.476;2024-02-14T05:34:38;100933.78;;;9.87;67.86
75585;BME280;64162;53.508;10.476;2024-02-14T05:37:04;100943.91;;;9.80;67.49
75585;BME280;64162;53.508;10.476;2024-02-14T05:39:35;100926.44;;;10.53;65.65
75585;BME280;64162;53.508;10.476;2024-02-14T05:42:02;100933.00;;;10.22;66.10
75585;BME280;64162;53.508;10.476;2024-02-14T05:44:29;100930.78;;;10.27;66.17
75585;BME280;64162;53.508;10.476;2024-02-14T05:46:59;100928.25;;;10.00;66.96
75585;BME280;64162;53.508;10.476;2024-02-14T05:49:27;100930.16;;;9.98;67.40
75585;BME280;64162;53.508;10.476;2024-02-14T05:51:56;100913.84;;;9.97;67.74
75585;BME280;64162;53.508;10.476;2024-02-14T05:54:24;100920.06;;;10.04;67.47
75585;BME280;64162;53.508;10.476;2024-02-14T05:56:59;100921.81;;;10.04;67.55
75585;BME280;64162;53.508;10.476;2024-02-14T05:59:30;100921.38;;;10.08;67.68
75585;BME280;64162;53.508;10.476;2024-02-14T06:01:57;100919.28;;;9.76;68.16
75585;BME280;64162;53.508;10.476;2024-02-14T06:04:23;100910.16;;;10.17;67.52
75585;BME280;64162;53.508;10.476;2024-02-14T06:06:50;100914.88;;;10.04;68.02
75585;BME280;64162;53.508;10.476;2024-02-14T06:09:19;100909.69;;;10.22;67.16
75585;BME280;64162;53.508;10.476;2024-02-14T06:11:45;100906.53;;;9.93;68.59
75585;BME280;64162;53.508;10.476;2024-02-14T06:14:12;100902.22;;;10.62;65.92
75585;BME280;64162;53.508;10.476;2024-02-14T06:16:40;100912.09;;;10.41;67.22
75585;BME280;64162;53.508;10.476;2024-02-14T06:19:09;100909.97;;;10.01;67.61
75585;BME280;64162;53.508;10.476;2024-02-14T06:21:43;100908.97;;;10.29;67.53
75585;BME280;64162;53.508;10.476;2024-02-14T06:24:10;100901.59;;;10.17;67.67
75585;BME280;64162;53.508;10.476;2024-02-14T06:26:39;100904.91;;;10.27;67.78
75585;BME280;64162;53.508;10.476;2024-02-14T06:29:08;100904.63;;;9.95;68.73
75585;BME280;64162;53.508;10.476;2024-02-14T06:31:35;100903.81;;;10.55;67.25
75585;BME280;64162;53.508;10.476;2024-02-14T06:34:02;100897.59;;;10.48;67.12
75585;BME280;64162;53.508;10.476;2024-02-14T06:36:28;100913.94;;;10.05;69.16
75585;BME280;64162;53.508;10.476;2024-02-14T06:38:55;100896.94;;;10.46;67.55
75585;BME280;64162;53.508;10.476;2024-02-14T06:41:22;100908.09;;;10.21;67.63
75585;BME280;64162;53.508;10.476;2024-02-14T06:44:03;100901.50;;;10.52;67.25
75585;BME280;64162;53.508;10.476;2024-02-14T06:46:30;100907.94;;;10.05;68.34
75585;BME280;64162;53.508;10.476;2024-02-14T06:48:58;100894.03;;;10.23;68.21
75585;BME280;64162;53.508;10.476;2024-02-14T06:51:25;100909.47;;;10.33;67.71
75585;BME280;64162;53.508;10.476;2024-02-14T06:53:52;100906.59;;;10.36;67.73
75585;BME280;64162;53.508;10.476;2024-02-14T06:56:18;100907.66;;;10.51;67.30
75585;BME280;64162;53.508;10.476;2024-02-14T06:58:45;100899.53;;;10.72;66.50
75585;BME280;64162;53.508;10.476;2024-02-14T07:01:12;100901.66;;;10.25;67.75
75585;BME280;64162;53.508;10.476;2024-02-14T07:03:41;100914.88;;;10.65;66.78
75585;BME280;64162;53.508;10.476;2024-02-14T07:06:08;100906.06;;;11.18;65.17
75585;BME280;64162;53.508;10.476;2024-02-14T07:08:35;100913.47;;;10.71;66.40
75585;BME280;64162;53.508;10.476;2024-02-14T07:11:02;100903.34;;;10.86;66.42
75585;BME280;64162;53.508;10.476;2024-02-14T07:13:29;100899.63;;;10.62;67.62
75585;BME280;64162;53.508;10.476;2024-02-14T07:15:57;100899.22;;;10.23;68.50
75585;BME280;64162;53.508;10.476;2024-02-14T07:18:24;100901.63;;;10.43;68.09
75585;BME280;64162;53.508;10.476;2024-02-14T07:20:50;100911.84;;;11.04;66.09
75585;BME280;64162;53.508;10.476;2024-02-14T07:23:18;100914.69;;;10.93;66.78
75585;BME280;64162;53.508;10.476;2024-02-14T07:25:53;100902.84;;;11.16;65.99
75585;BME280;64162;53.508;10.476;2024-02-14T07:28:20;100909.25;;;11.04;66.21
75585;BME280;64162;53.508;10.476;2024-02-14T07:30:49;100913.34;;;10.81;67.26
75585;BME280;64162;53.508;10.476;2024-02-14T07:33:16;100895.94;;;10.99;66.07
75585;BME280;64162;53.508;10.476;2024-02-14T07:35:45;100907.75;;;11.35;65.75
75585;BME280;64162;53.508;10.476;2024-02-14T07:38:13;100908.56;;;10.94;67.10
75585;BME280;64162;53.508;10.476;2024-02-14T07:40:40;100902.03;;;11.15;66.20
75585;BME280;64162;53.508;10.476;2024-02-14T07:43:08;100901.50;;;11.12;66.70
75585;BME280;64162;53.508;10.476;2024-02-14T07:45:38;100910.47;;;10.92;67.21
75585;BME280;64162;53.508;10.476;2024-02-14T07:48:05;100902.31;;;11.12;66.27
75585;BME280;64162;53.508;10.476;2024-02-14T07:50:32;100892.41;;;11.00;66.99
75585;BME280;64162;53.508;10.476;2024-02-14T07:52:58;100898.16;;;10.86;67.03
75585;BME280;64162;53.508;10.476;2024-02-14T07:55:28;100892.75;;;11.55;65.97
75585;BME280;64162;53.508;10.476;2024-02-14T07:57:56;100902.44;;;10.69;67.66
75585;BME280;64162;53.508;10.476;2024-02-14T08:00:25;100896.31;;;11.12;67.16
75585;BME280;64162;53.508;10.476;2024-02-14T08:02:52;100897.88;;;11.39;66.55
75585;BME280;64162;53.508;10.476;2024-02-14T08:05:18;100890.69;;;11.16;66.53
75585;BME280;64162;53.508;10.476;2024-02-14T08:07:51;100890.19;;;11.71;65.21
75585;BME280;64162;53.508;10.476;2024-02-14T08:10:18;100897.41;;;11.43;65.92
75585;BME280;64162;53.508;10.476;2024-02-14T08:12:46;100880.06;;;11.44;65.63
75585;BME280;64162;53.508;10.476;2024-02-14T08:15:14;100887.16;;;10.92;67.79
75585;BME280;64162;53.508;10.476;2024-02-14T08:17:41;100898.59;;;11.65;65.69
75585;BME280;64162;53.508;10.476;2024-02-14T08:20:14;100885.34;;;11.76;65.42
75585;BME280;64162;53.508;10.476;2024-02-14T08:22:43;100878.56;;;11.25;66.51
75585;BME280;64162;53.508;10.476;2024-02-14T08:25:10;100883.97;;;11.48;66.26
75585;BME280;64162;53.508;10.476;2024-02-14T08:27:38;100887.06;;;11.51;66.58
75585;BME280;64162;53.508;10.476;2024-02-14T08:30:05;100875.94;;;11.83;65.38
75585;BME280;64162;53.508;10.476;2024-02-14T08:32:35;100883.56;;;11.85;65.59
75585;BME280;64162;53.508;10.476;2024-02-14T08:35:02;100891.13;;;11.12;67.72
75585;BME280;64162;53.508;10.476;2024-02-14T08:37:29;100889.19;;;11.64;66.48
75585;BME280;64162;53.508;10.476;2024-02-14T08:39:56;100880.66;;;11.88;65.55
75585;BME280;64162;53.508;10.476;2024-02-14T08:42:24;100888.13;;;11.91;65.86
75585;BME280;64162;53.508;10.476;2024-02-14T08:44:50;100887.94;;;11.76;66.20
75585;BME280;64162;53.508;10.476;2024-02-14T08:47:24;100877.72;;;12.23;64.71
75585;BME280;64162;53.508;10.476;2024-02-14T08:49:52;100882.28;;;12.29;64.49
75585;BME280;64162;53.508;10.476;2024-02-14T08:52:20;100874.91;;;11.60;66.42
75585;BME280;64162;53.508;10.476;2024-02-14T08:54:47;100896.22;;;11.80;66.65
75585;BME280;64162;53.508;10.476;2024-02-14T08:57:15;100891.78;;;11.64;67.54
75585;BME280;64162;53.508;10.476;2024-02-14T08:59:41;100893.78;;;11.28;68.50
75585;BME280;64162;53.508;10.476;2024-02-14T09:02:10;100874.47;;;12.37;66.00
75585;BME280;64162;53.508;10.476;2024-02-14T09:04:37;100881.97;;;12.00;66.63
75585;BME280;64162;53.508;10.476;2024-02-14T09:07:03;100890.22;;;12.20;65.84
75585;BME280;64162;53.508;10.476;2024-02-14T09:09:32;100877.06;;;12.29;65.51
75585;BME280;64162;53.508;10.476;2024-02-14T09:11:59;100890.38;;;12.34;65.99
75585;BME280;64162;53.508;10.476;2024-02-14T09:14:30;100879.63;;;12.54;65.18
75585;BME280;64162;53.508;10.476;2024-02-14T09:17:02;100882.28;;;12.29;65.86
75585;BME280;64162;53.508;10.476;2024-02-14T09:19:29;100882.59;;;12.34;66.47
75585;BME280;64162;53.508;10.476;2024-02-14T09:21:56;100883.56;;;12.09;66.77
75585;BME280;64162;53.508;10.476;2024-02-14T09:24:25;100879.34;;;12.96;64.16
75585;BME280;64162;53.508;10.476;2024-02-14T09:26:52;100876.88;;;13.72;64.69
75585;BME280;64162;53.508;10.476;2024-02-14T09:29:19;100888.91;;;12.40;66.81
75585;BME280;64162;53.508;10.476;2024-02-14T09:31:45;100897.38;;;12.42;66.86
75585;BME280;64162;53.508;10.476;2024-02-14T09:34:13;100879.78;;;12.60;66.12
75585;BME280;64162;53.508;10.476;2024-02-14T09:36:43;100892.47;;;12.39;66.57
75585;BME280;64162;53.508;10.476;2024-02-14T09:39:10;100892.66;;;11.81;68.49
75585;BME280;64162;53.508;10.476;2024-02-14T09:41:41;100897.63;;;12.71;65.89
75585;BME280;64162;53.508;10.476;2024-02-14T09:44:09;100877.31;;;12.75;66.38
75585;BME280;64162;53.508;10.476;2024-02-14T09:46:36;100889.72;;;12.24;67.73
75585;BME280;64162;53.508;10.476;2024-02-14T09:49:05;100891.69;;;11.98;68.86
75585;BME280;64162;53.508;10.476;2024-02-14T09:51:32;100878.81;;;12.53;67.17
75585;BME280;64162;53.508;10.476;2024-02-14T09:54:02;100885.78;;;13.08;65.30
75585;BME280;64162;53.508;10.476;2024-02-14T09:56:29;100879.97;;;13.06;66.27
75585;BME280;64162;53.508;10.476;2024-02-14T09:58:57;100869.25;;;12.54;67.33
75585;BME280;64162;53.508;10.476;2024-02-14T10:01:27;100881.53;;;12.68;67.52
75585;BME280;64162;53.508;10.476;2024-02-14T10:03:54;100893.56;;;12.69;67.80
75585;BME280;64162;53.508;10.476;2024-02-14T10:06:23;100897.78;;;12.70;67.94
75585;BME280;64162;53.508;10.476;2024-02-14T10:08:53;100897.25;;;13.38;66.22
75585;BME280;64162;53.508;10.476;2024-02-14T10:11:20;100884.09;;;12.84;68.41
75585;BME280;64162;53.508;10.476;2024-02-14T10:13:48;100892.41;;;13.26;66.99
75585;BME280;64162;53.508;10.476;2024-02-14T10:16:16;100894.88;;;12.65;67.68
75585;BME280;64162;53.508;10.476;2024-02-14T10:18:45;100893.75;;;13.14;66.83
75585;BME280;64162;53.508;10.476;2024-02-14T10:21:18;100890.13;;;13.54;65.45
75585;BME280;64162;53.508;10.476;2024-02-14T10:23:45;100892.81;;;13.46;66.59
75585;BME280;64162;53.508;10.476;2024-02-14T10:26:17;100901.63;;;12.90;67.96
75585;BME280;64162;53.508;10.476;2024-02-14T10:28:44;100903.25;;;12.91;68.70
75585;BME280;64162;53.508;10.476;2024-02-14T10:31:11;100901.22;;;13.09;67.71
75585;BME280;64162;53.508;10.476;2024-02-14T10:33:39;100900.81;;;12.89;68.40
75585;BME280;64162;53.508;10.476;2024-02-14T10:36:07;100902.84;;;13.18;68.47
75585;BME280;64162;53.508;10.476;2024-02-14T10:38:35;100895.53;;;13.14;68.49
75585;BME280;64162;53.508;10.476;2024-02-14T10:41:02;100907.22;;;13.26;68.73
75585;BME280;64162;53.508;10.476;2024-02-14T10:43:29;100905.38;;;13.35;68.93
75585;BME280;64162;53.508;10.476;2024-02-14T10:46:15;100916.78;;;13.87;66.90
75585;BME280;64162;53.508;10.476;2024-02-14T10:48:45;100910.84;;;14.16;66.24
75585;BME280;64162;53.508;10.476;2024-02-14T10:51:15;100906.84;;;13.29;69.18
75585;BME280;64162;53.508;10.476;2024-02-14T10:53:45;100922.88;;;13.94;66.46
75585;BME280;64162;53.508;10.476;2024-02-14T10:56:18;100916.22;;;13.69;67.97
75585;BME280;64162;53.508;10.476;2024-02-14T10:58:49;100913.41;;;13.56;68.77
75585;BME280;64162;53.508;10.476;2024-02-14T11:01:21;100910.06;;;13.39;69.29
75585;BME280;64162;53.508;10.476;2024-02-14T11:03:51;100916.22;;;13.38;69.81
75585;BME280;64162;53.508;10.476;2024-02-14T11:06:18;100916.53;;;13.12;70.51
75585;BME280;64162;53.508;10.476;2024-02-14T11:09:03;100915.72;;;13.12;70.30
75585;BME280;64162;53.508;10.476;2024-02-14T11:11:37;100916.72;;;13.95;68.65
75585;BME280;64162;53.508;10.476;2024-02-14T11:14:06;100914.66;;;13.60;68.84
75585;BME280;64162;53.508;10.476;2024-02-14T11:16:32;100917.34;;;13.97;67.92
75585;BME280;64162;53.508;10.476;2024-02-14T11:19:10;100919.31;;;14.18;67.58
75585;BME280;64162;53.508;10.476;2024-02-14T11:24:14;100909.13;;;14.08;68.35
75585;BME280;64162;53.508;10.476;2024-02-14T11:26:50;100915.84;;;13.80;69.36
75585;BME280;64162;53.508;10.476;2024-02-14T11:29:18;100917.16;;;13.76;69.77
75585;BME280;64162;53.508;10.476;2024-02-14T11:32:02;100916.75;;;14.33;67.37
75585;BME280;64162;53.508;10.476;2024-02-14T11:34:29;100919.88;;;14.05;68.52
75585;BME280;64162;53.508;10.476;2024-02-14T11:37:03;100919.25;;;13.81;69.24
75585;BME280;64162;53.508;10.476;2024-02-14T11:39:33;100916.47;;;14.28;68.31
75585;BME280;64162;53.508;10.476;2024-02-14T11:42:03;100920.22;;;14.25;68.91
75585;BME280;64162;53.508;10.476;2024-02-14T11:44:31;100916.28;;;13.84;69.56
75585;BME280;64162;53.508;10.476;2024-02-14T11:46:59;100925.78;;;14.22;68.92
75585;BME280;64162;53.508;10.476;2024-02-14T11:49:35;100928.91;;;14.17;69.26
75585;BME280;64162;53.508;10.476;2024-02-14T11:52:02;100920.22;;;14.48;68.16
75585;BME280;64162;53.508;10.476;2024-02-14T11:54:30;100919.75;;;14.22;68.42
75585;BME280;64162;53.508;10.476;2024-02-14T11:56:57;100934.63;;;14.73;66.55
75585;BME280;64162;53.508;10.476;2024-02-14T11:59:24;100938.63;;;14.46;68.99
75585;BME280;64162;53.508;10.476;2024-02-14T12:01:50;100924.38;;;14.57;68.98
75585;BME280;64162;53.508;10.476;2024-02-14T12:04:20;100936.56;;;14.42;68.78
75585;BME280;64162;53.508;10.476;2024-02-14T12:06:47;100925.09;;;14.80;67.62
75585;BME280;64162;53.508;10.476;2024-02-14T12:09:14;100939.38;;;13.87;70.70
75585;BME280;64162;53.508;10.476;2024-02-14T12:11:41;100941.63;;;13.90;71.73
75585;BME280;64162;53.508;10.476;2024-02-14T12:14:12;100933.94;;;14.42;69.85
75585;BME280;64162;53.508;10.476;2024-02-14T12:16:42;100935.78;;;14.56;69.27
75585;BME280;64162;53.508;10.476;2024-02-14T12:19:15;100937.91;;;14.38;69.82
75585;BME280;64162;53.508;10.476;2024-02-14T12:21:42;100935.16;;;14.08;71.12
75585;BME280;64162;53.508;10.476;2024-02-14T12:24:13;100933.00;;;14.57;70.08
75585;BME280;64162;53.508;10.476;2024-02-14T12:26:41;100950.13;;;14.37;70.66
75585;BME280;64162;53.508;10.476;2024-02-14T12:29:11;100934.91;;;14.64;69.82
75585;BME280;64162;53.508;10.476;2024-02-14T12:31:39;100944.75;;;14.53;69.85
75585;BME280;64162;53.508;10.476;2024-02-14T12:34:10;100943.28;;;14.36;70.84
75585;BME280;64162;53.508;10.476;2024-02-14T12:36:37;100949.59;;;14.34;71.22
75585;BME280;64162;53.508;10.476;2024-02-14T12:39:04;100946.25;;;14.25;71.39
75585;BME280;64162;53.508;10.476;2024-02-14T12:41:31;100949.72;;;14.63;70.77
75585;BME280;64162;53.508;10.476;2024-02-14T12:43:58;100945.22;;;14.57;70.89
75585;BME280;64162;53.508;10.476;2024-02-14T12:46:29;100948.47;;;14.13;71.95
75585;BME280;64162;53.508;10.476;2024-02-14T12:48:56;100940.47;;;15.04;69.36